Aeroporto :
LOGIN :

Iscrizione | Disclaimer

   EN    FR    IT 

 










Sommario :    VFR   VFR Marginale   IFR   IFR Intensivo   IFR Molto Intensivo
Visibilità : 
Base nubi : 
>= 8 km
>= 3000ft
5 / 8 km
1000 / 3000 ft
1500m / 5 km
500 / 1000 ft
800 / 1500m
200 / 500 ft
< 800m
< 200 ft
Simboli :   Temporali  Nebbia  Neve Forte  Precipitazioni Forti  Vento > 20 kt
SIGMETs :   Varie  Temporali  Ghiacco  Turbolenza  Onda orograficha  Ceneri Vulcaniche






- Altitudine del aeroporto : 53 ft
- Codice IATA : HAM


EDDH - Hamburg

ULTIMO METAR :
  • 301720Z 19010KT 9999 BKN016 03/M01 Q1016 BECMG BKN012

METARs OBSOLETI :
  • 301650Z 18009KT 9999 BKN025 03/M02 Q1016 NOSIG
  • 301620Z 19011KT 9999 -RA FEW028 BKN044 03/M02 Q1017 NOSIG
  • 301550Z 20011KT CAVOK 03/M01 Q1017 NOSIG
  • 301520Z 19010KT CAVOK 03/M01 Q1018 NOSIG
  • 301450Z 19009KT 9999 SCT040 03/M01 Q1018 NOSIG

TAF TAF EDDH
Valido dal 30 a 18 ore il 02 a 00 ore UTC


301700Z 3018/0124 18011KT 9999 BKN020
BECMG 3018/3021 4000 -RA BKN007
PROB30
TEMPO 3020/0103 BKN004
TEMPO 3021/0105 5000
BECMG 0101/0103 18006KT
BECMG 0105/0107 12007KT
PROB30
TEMPO 0107/0124 2500 -DZ BR BKN004
BECMG 0110/0112 06005KT



MetMap, La meteo Aeronautica in un colpo d'occhio ! - Copyright ORBIFLY Dicembre 2007 - Disclaimer

ORBIFLY MET'MAP TEAM :

Programmazione e sviluppo : Alexandra Zaïnal
Concezione : Baudouin d'Aumeries
Aiuto per la programmazione : Marc-Olivier Méhu
Supporto tecnico e logistico : Manuel Goepfert
Aiuto per la traduzione : Arnaldo La Scala

Contatto : metmap@orbifly.com




FONTI E CREDITI :

   NOAA